sensor_id;sensor_type;location;lat;lon;timestamp;P1;durP1;ratioP1;P2;durP2;ratioP2
37299;SDS011;23184;51.902;12.836;2023-02-28T00:00:43;3.53;;;1.55;;
37299;SDS011;23184;51.902;12.836;2023-02-28T00:03:09;4.63;;;1.30;;
37299;SDS011;23184;51.902;12.836;2023-02-28T00:05:35;2.05;;;1.52;;
37299;SDS011;23184;51.902;12.836;2023-02-28T00:08:00;6.07;;;1.45;;
37299;SDS011;23184;51.902;12.836;2023-02-28T00:10:27;4.70;;;1.45;;
37299;SDS011;23184;51.902;12.836;2023-02-28T00:12:55;2.20;;;1.60;;
37299;SDS011;23184;51.902;12.836;2023-02-28T00:15:24;3.72;;;1.67;;
37299;SDS011;23184;51.902;12.836;2023-02-28T00:17:50;3.15;;;1.60;;
37299;SDS011;23184;51.902;12.836;2023-02-28T00:20:16;3.33;;;1.42;;
37299;SDS011;23184;51.902;12.836;2023-02-28T00:22:42;2.95;;;1.38;;
37299;SDS011;23184;51.902;12.836;2023-02-28T00:25:11;2.03;;;1.50;;
37299;SDS011;23184;51.902;12.836;2023-02-28T00:27:38;2.60;;;1.50;;
37299;SDS011;23184;51.902;12.836;2023-02-28T00:30:05;3.00;;;1.30;;
37299;SDS011;23184;51.902;12.836;2023-02-28T00:32:32;3.60;;;1.40;;
37299;SDS011;23184;51.902;12.836;2023-02-28T00:34:59;2.08;;;1.33;;
37299;SDS011;23184;51.902;12.836;2023-02-28T00:37:24;4.78;;;2.22;;
37299;SDS011;23184;51.902;12.836;2023-02-28T00:39:50;3.20;;;1.40;;
37299;SDS011;23184;51.902;12.836;2023-02-28T00:42:16;3.50;;;1.48;;
37299;SDS011;23184;51.902;12.836;2023-02-28T00:44:41;2.55;;;1.42;;
37299;SDS011;23184;51.902;12.836;2023-02-28T00:47:07;3.40;;;1.27;;
37299;SDS011;23184;51.902;12.836;2023-02-28T00:49:32;4.47;;;1.60;;
37299;SDS011;23184;51.902;12.836;2023-02-28T00:51:58;2.90;;;1.98;;
37299;SDS011;23184;51.902;12.836;2023-02-28T00:54:23;1.42;;;1.30;;
37299;SDS011;23184;51.902;12.836;2023-02-28T00:56:49;3.35;;;1.65;;
37299;SDS011;23184;51.902;12.836;2023-02-28T00:59:16;2.65;;;1.13;;
37299;SDS011;23184;51.902;12.836;2023-02-28T01:01:43;2.67;;;1.65;;
37299;SDS011;23184;51.902;12.836;2023-02-28T01:04:10;3.78;;;1.60;;
37299;SDS011;23184;51.902;12.836;2023-02-28T01:06:36;3.75;;;1.60;;
37299;SDS011;23184;51.902;12.836;2023-02-28T01:09:02;5.95;;;1.40;;
37299;SDS011;23184;51.902;12.836;2023-02-28T01:11:28;5.82;;;2.00;;
37299;SDS011;23184;51.902;12.836;2023-02-28T01:13:54;4.07;;;1.35;;
37299;SDS011;23184;51.902;12.836;2023-02-28T01:16:19;3.00;;;1.55;;
37299;SDS011;23184;51.902;12.836;2023-02-28T01:18:45;4.78;;;1.55;;
37299;SDS011;23184;51.902;12.836;2023-02-28T01:21:12;4.18;;;1.90;;
37299;SDS011;23184;51.902;12.836;2023-02-28T01:23:39;1.73;;;1.20;;
37299;SDS011;23184;51.902;12.836;2023-02-28T01:28:32;2.95;;;1.33;;
37299;SDS011;23184;51.902;12.836;2023-02-28T01:30:57;3.05;;;1.40;;
37299;SDS011;23184;51.902;12.836;2023-02-28T01:33:22;4.60;;;1.50;;
37299;SDS011;23184;51.902;12.836;2023-02-28T01:35:48;3.22;;;1.80;;
37299;SDS011;23184;51.902;12.836;2023-02-28T01:38:14;8.80;;;2.10;;
37299;SDS011;23184;51.902;12.836;2023-02-28T01:40:39;4.05;;;2.28;;
37299;SDS011;23184;51.902;12.836;2023-02-28T01:43:12;3.97;;;1.80;;
37299;SDS011;23184;51.902;12.836;2023-02-28T01:45:53;4.32;;;1.75;;
37299;SDS011;23184;51.902;12.836;2023-02-28T01:48:21;2.42;;;1.45;;
37299;SDS011;23184;51.902;12.836;2023-02-28T01:50:54;5.05;;;2.22;;
37299;SDS011;23184;51.902;12.836;2023-02-28T01:53:26;3.00;;;1.60;;
37299;SDS011;23184;51.902;12.836;2023-02-28T01:55:57;2.83;;;1.73;;
37299;SDS011;23184;51.902;12.836;2023-02-28T01:58:23;3.13;;;1.77;;
37299;SDS011;23184;51.902;12.836;2023-02-28T02:00:48;4.07;;;1.67;;
37299;SDS011;23184;51.902;12.836;2023-02-28T02:03:15;4.50;;;1.95;;
37299;SDS011;23184;51.902;12.836;2023-02-28T02:05:46;3.80;;;2.20;;
37299;SDS011;23184;51.902;12.836;2023-02-28T02:08:13;3.40;;;1.73;;
37299;SDS011;23184;51.902;12.836;2023-02-28T02:10:48;3.60;;;2.13;;
37299;SDS011;23184;51.902;12.836;2023-02-28T02:13:44;3.45;;;1.70;;
37299;SDS011;23184;51.902;12.836;2023-02-28T02:25:22;4.60;;;1.60;;
37299;SDS011;23184;51.902;12.836;2023-02-28T02:29:10;3.17;;;1.70;;
37299;SDS011;23184;51.902;12.836;2023-02-28T02:39:40;2.85;;;2.03;;
37299;SDS011;23184;51.902;12.836;2023-02-28T02:42:17;5.63;;;1.95;;
37299;SDS011;23184;51.902;12.836;2023-02-28T02:45:05;2.67;;;1.50;;
37299;SDS011;23184;51.902;12.836;2023-02-28T02:47:36;5.05;;;1.70;;
37299;SDS011;23184;51.902;12.836;2023-02-28T02:50:04;3.60;;;1.70;;
37299;SDS011;23184;51.902;12.836;2023-02-28T02:52:53;5.20;;;2.28;;
37299;SDS011;23184;51.902;12.836;2023-02-28T02:55:22;4.97;;;1.98;;
37299;SDS011;23184;51.902;12.836;2023-02-28T02:57:53;3.40;;;1.88;;
37299;SDS011;23184;51.902;12.836;2023-02-28T03:00:24;2.40;;;1.48;;
37299;SDS011;23184;51.902;12.836;2023-02-28T03:02:54;6.22;;;2.17;;
37299;SDS011;23184;51.902;12.836;2023-02-28T03:05:25;5.25;;;2.28;;
37299;SDS011;23184;51.902;12.836;2023-02-28T03:07:54;3.92;;;1.80;;
37299;SDS011;23184;51.902;12.836;2023-02-28T03:10:36;7.38;;;2.40;;
37299;SDS011;23184;51.902;12.836;2023-02-28T03:13:10;5.15;;;2.58;;
37299;SDS011;23184;51.902;12.836;2023-02-28T03:18:23;5.20;;;1.92;;
37299;SDS011;23184;51.902;12.836;2023-02-28T03:21:19;5.05;;;2.10;;
37299;SDS011;23184;51.902;12.836;2023-02-28T03:23:56;4.45;;;2.10;;
37299;SDS011;23184;51.902;12.836;2023-02-28T03:26:29;5.55;;;1.83;;
37299;SDS011;23184;51.902;12.836;2023-02-28T03:29:02;3.78;;;1.83;;
37299;SDS011;23184;51.902;12.836;2023-02-28T03:31:50;4.82;;;2.00;;
37299;SDS011;23184;51.902;12.836;2023-02-28T03:34:24;4.57;;;2.05;;
37299;SDS011;23184;51.902;12.836;2023-02-28T03:36:55;7.05;;;2.42;;
37299;SDS011;23184;51.902;12.836;2023-02-28T03:39:25;5.47;;;2.40;;
37299;SDS011;23184;51.902;12.836;2023-02-28T03:42:24;5.82;;;2.25;;
37299;SDS011;23184;51.902;12.836;2023-02-28T03:44:54;6.15;;;2.30;;
37299;SDS011;23184;51.902;12.836;2023-02-28T03:47:27;4.22;;;1.98;;
37299;SDS011;23184;51.902;12.836;2023-02-28T03:50:40;4.03;;;2.28;;
37299;SDS011;23184;51.902;12.836;2023-02-28T03:52:47;4.93;;;2.15;;
37299;SDS011;23184;51.902;12.836;2023-02-28T03:55:28;4.20;;;2.17;;
37299;SDS011;23184;51.902;12.836;2023-02-28T03:58:04;3.80;;;2.00;;
37299;SDS011;23184;51.902;12.836;2023-02-28T04:00:59;4.70;;;1.73;;
37299;SDS011;23184;51.902;12.836;2023-02-28T04:03:33;4.90;;;2.08;;
37299;SDS011;23184;51.902;12.836;2023-02-28T04:06:03;5.07;;;2.33;;
37299;SDS011;23184;51.902;12.836;2023-02-28T04:08:31;4.65;;;2.08;;
37299;SDS011;23184;51.902;12.836;2023-02-28T04:11:00;4.57;;;2.30;;
37299;SDS011;23184;51.902;12.836;2023-02-28T04:13:31;5.45;;;2.22;;
37299;SDS011;23184;51.902;12.836;2023-02-28T04:15:57;6.40;;;3.00;;
37299;SDS011;23184;51.902;12.836;2023-02-28T04:18:22;4.60;;;2.30;;
37299;SDS011;23184;51.902;12.836;2023-02-28T04:20:48;4.13;;;2.20;;
37299;SDS011;23184;51.902;12.836;2023-02-28T04:23:13;3.85;;;2.00;;
37299;SDS011;23184;51.902;12.836;2023-02-28T04:25:38;8.00;;;2.50;;
37299;SDS011;23184;51.902;12.836;2023-02-28T04:28:05;5.20;;;2.20;;
37299;SDS011;23184;51.902;12.836;2023-02-28T04:30:31;4.80;;;2.08;;
37299;SDS011;23184;51.902;12.836;2023-02-28T04:32:57;4.50;;;2.50;;
37299;SDS011;23184;51.902;12.836;2023-02-28T04:35:23;3.75;;;1.95;;
37299;SDS011;23184;51.902;12.836;2023-02-28T04:37:49;6.20;;;2.20;;
37299;SDS011;23184;51.902;12.836;2023-02-28T04:40:14;3.72;;;1.90;;
37299;SDS011;23184;51.902;12.836;2023-02-28T04:42:40;5.75;;;2.05;;
37299;SDS011;23184;51.902;12.836;2023-02-28T04:45:05;5.00;;;2.17;;
37299;SDS011;23184;51.902;12.836;2023-02-28T04:47:31;3.80;;;2.03;;
37299;SDS011;23184;51.902;12.836;2023-02-28T04:49:57;4.85;;;2.00;;
37299;SDS011;23184;51.902;12.836;2023-02-28T04:52:22;5.80;;;2.10;;
37299;SDS011;23184;51.902;12.836;2023-02-28T04:54:48;3.40;;;1.80;;
37299;SDS011;23184;51.902;12.836;2023-02-28T04:57:14;5.38;;;2.40;;
37299;SDS011;23184;51.902;12.836;2023-02-28T04:59:39;4.43;;;2.53;;
37299;SDS011;23184;51.902;12.836;2023-02-28T05:02:05;4.53;;;2.00;;
37299;SDS011;23184;51.902;12.836;2023-02-28T05:04:35;3.85;;;1.90;;
37299;SDS011;23184;51.902;12.836;2023-02-28T05:07:01;4.15;;;2.20;;
37299;SDS011;23184;51.902;12.836;2023-02-28T05:09:28;7.22;;;2.55;;
37299;SDS011;23184;51.902;12.836;2023-02-28T05:11:53;7.05;;;2.72;;
37299;SDS011;23184;51.902;12.836;2023-02-28T05:14:19;4.93;;;2.72;;
37299;SDS011;23184;51.902;12.836;2023-02-28T05:16:45;5.45;;;2.30;;
37299;SDS011;23184;51.902;12.836;2023-02-28T05:19:10;4.63;;;2.33;;
37299;SDS011;23184;51.902;12.836;2023-02-28T05:21:40;4.82;;;2.22;;
37299;SDS011;23184;51.902;12.836;2023-02-28T05:24:13;6.80;;;2.67;;
37299;SDS011;23184;51.902;12.836;2023-02-28T05:26:39;7.30;;;2.72;;
37299;SDS011;23184;51.902;12.836;2023-02-28T05:29:06;5.55;;;2.25;;
37299;SDS011;23184;51.902;12.836;2023-02-28T05:31:32;7.95;;;2.55;;
37299;SDS011;23184;51.902;12.836;2023-02-28T05:33:58;4.90;;;2.55;;
37299;SDS011;23184;51.902;12.836;2023-02-28T05:36:24;6.32;;;2.22;;
37299;SDS011;23184;51.902;12.836;2023-02-28T05:38:50;4.57;;;2.17;;
37299;SDS011;23184;51.902;12.836;2023-02-28T05:41:16;6.30;;;2.78;;
37299;SDS011;23184;51.902;12.836;2023-02-28T05:43:44;5.03;;;2.10;;
37299;SDS011;23184;51.902;12.836;2023-02-28T05:46:10;5.75;;;2.00;;
37299;SDS011;23184;51.902;12.836;2023-02-28T05:48:37;4.47;;;2.08;;
37299;SDS011;23184;51.902;12.836;2023-02-28T05:51:03;4.18;;;2.38;;
37299;SDS011;23184;51.902;12.836;2023-02-28T05:53:31;6.93;;;2.50;;
37299;SDS011;23184;51.902;12.836;2023-02-28T05:55:57;7.03;;;2.60;;
37299;SDS011;23184;51.902;12.836;2023-02-28T05:58:22;8.75;;;2.55;;
37299;SDS011;23184;51.902;12.836;2023-02-28T06:00:50;5.47;;;2.63;;
37299;SDS011;23184;51.902;12.836;2023-02-28T06:03:16;4.60;;;2.22;;
37299;SDS011;23184;51.902;12.836;2023-02-28T06:05:41;4.38;;;2.70;;
37299;SDS011;23184;51.902;12.836;2023-02-28T06:08:07;4.55;;;2.65;;
37299;SDS011;23184;51.902;12.836;2023-02-28T06:10:33;5.13;;;2.63;;
37299;SDS011;23184;51.902;12.836;2023-02-28T06:13:00;6.43;;;2.63;;
37299;SDS011;23184;51.902;12.836;2023-02-28T06:15:27;7.93;;;3.97;;
37299;SDS011;23184;51.902;12.836;2023-02-28T06:17:53;9.00;;;2.50;;
37299;SDS011;23184;51.902;12.836;2023-02-28T06:20:18;5.80;;;2.30;;
37299;SDS011;23184;51.902;12.836;2023-02-28T06:22:44;4.53;;;2.53;;
37299;SDS011;23184;51.902;12.836;2023-02-28T06:25:09;5.68;;;2.60;;
37299;SDS011;23184;51.902;12.836;2023-02-28T06:27:35;6.80;;;3.17;;
37299;SDS011;23184;51.902;12.836;2023-02-28T06:30:01;4.88;;;3.15;;
37299;SDS011;23184;51.902;12.836;2023-02-28T06:32:26;11.07;;;3.35;;
37299;SDS011;23184;51.902;12.836;2023-02-28T06:34:52;6.68;;;3.13;;
37299;SDS011;23184;51.902;12.836;2023-02-28T06:37:18;8.23;;;3.10;;
37299;SDS011;23184;51.902;12.836;2023-02-28T06:39:43;6.03;;;3.05;;
37299;SDS011;23184;51.902;12.836;2023-02-28T06:42:09;6.65;;;3.53;;
37299;SDS011;23184;51.902;12.836;2023-02-28T06:44:35;6.15;;;3.28;;
37299;SDS011;23184;51.902;12.836;2023-02-28T06:47:01;6.05;;;3.08;;
37299;SDS011;23184;51.902;12.836;2023-02-28T06:49:28;6.32;;;3.33;;
37299;SDS011;23184;51.902;12.836;2023-02-28T06:51:54;6.10;;;3.58;;
37299;SDS011;23184;51.902;12.836;2023-02-28T06:54:20;8.48;;;3.90;;
37299;SDS011;23184;51.902;12.836;2023-02-28T06:56:45;6.47;;;3.40;;
37299;SDS011;23184;51.902;12.836;2023-02-28T06:59:12;6.72;;;3.67;;
37299;SDS011;23184;51.902;12.836;2023-02-28T07:01:37;7.85;;;3.47;;
37299;SDS011;23184;51.902;12.836;2023-02-28T07:04:04;8.10;;;3.90;;
37299;SDS011;23184;51.902;12.836;2023-02-28T07:06:30;7.60;;;3.70;;
37299;SDS011;23184;51.902;12.836;2023-02-28T07:08:56;6.47;;;3.58;;
37299;SDS011;23184;51.902;12.836;2023-02-28T07:11:22;11.32;;;3.95;;
37299;SDS011;23184;51.902;12.836;2023-02-28T07:13:50;6.18;;;3.28;;
37299;SDS011;23184;51.902;12.836;2023-02-28T07:16:19;6.35;;;3.35;;
37299;SDS011;23184;51.902;12.836;2023-02-28T07:18:46;7.28;;;3.00;;
37299;SDS011;23184;51.902;12.836;2023-02-28T07:21:12;6.03;;;2.90;;
37299;SDS011;23184;51.902;12.836;2023-02-28T07:23:38;7.82;;;3.13;;
37299;SDS011;23184;51.902;12.836;2023-02-28T07:26:04;5.63;;;2.95;;
37299;SDS011;23184;51.902;12.836;2023-02-28T07:28:31;4.50;;;2.95;;
37299;SDS011;23184;51.902;12.836;2023-02-28T07:31:02;15.32;;;2.88;;
37299;SDS011;23184;51.902;12.836;2023-02-28T07:33:31;7.65;;;3.15;;
37299;SDS011;23184;51.902;12.836;2023-02-28T07:36:03;7.80;;;3.40;;
37299;SDS011;23184;51.902;12.836;2023-02-28T07:38:30;5.32;;;3.03;;
37299;SDS011;23184;51.902;12.836;2023-02-28T07:40:56;6.03;;;2.85;;
37299;SDS011;23184;51.902;12.836;2023-02-28T07:43:21;5.35;;;3.17;;
37299;SDS011;23184;51.902;12.836;2023-02-28T07:45:47;4.25;;;2.88;;
37299;SDS011;23184;51.902;12.836;2023-02-28T07:48:12;6.25;;;3.10;;
37299;SDS011;23184;51.902;12.836;2023-02-28T07:50:38;5.80;;;3.13;;
37299;SDS011;23184;51.902;12.836;2023-02-28T07:53:03;6.55;;;3.47;;
37299;SDS011;23184;51.902;12.836;2023-02-28T07:55:29;6.50;;;3.10;;
37299;SDS011;23184;51.902;12.836;2023-02-28T07:57:56;5.13;;;3.38;;
37299;SDS011;23184;51.902;12.836;2023-02-28T08:00:22;5.07;;;2.75;;
37299;SDS011;23184;51.902;12.836;2023-02-28T08:02:48;5.03;;;2.90;;
37299;SDS011;23184;51.902;12.836;2023-02-28T08:05:13;5.28;;;2.65;;
37299;SDS011;23184;51.902;12.836;2023-02-28T08:07:39;5.63;;;2.70;;
37299;SDS011;23184;51.902;12.836;2023-02-28T08:10:04;10.60;;;3.40;;
37299;SDS011;23184;51.902;12.836;2023-02-28T08:12:30;6.72;;;2.92;;
37299;SDS011;23184;51.902;12.836;2023-02-28T08:14:56;7.72;;;3.20;;
37299;SDS011;23184;51.902;12.836;2023-02-28T08:17:22;6.65;;;2.70;;
37299;SDS011;23184;51.902;12.836;2023-02-28T08:19:47;5.60;;;2.53;;
37299;SDS011;23184;51.902;12.836;2023-02-28T08:22:13;4.10;;;2.42;;
37299;SDS011;23184;51.902;12.836;2023-02-28T08:24:38;5.70;;;3.05;;
37299;SDS011;23184;51.902;12.836;2023-02-28T08:27:06;6.50;;;2.40;;
37299;SDS011;23184;51.902;12.836;2023-02-28T08:29:32;5.47;;;2.80;;
37299;SDS011;23184;51.902;12.836;2023-02-28T08:31:57;6.68;;;3.00;;
37299;SDS011;23184;51.902;12.836;2023-02-28T08:34:23;7.13;;;3.17;;
37299;SDS011;23184;51.902;12.836;2023-02-28T08:36:49;6.60;;;2.55;;
37299;SDS011;23184;51.902;12.836;2023-02-28T08:39:14;9.43;;;2.92;;
37299;SDS011;23184;51.902;12.836;2023-02-28T08:41:41;5.57;;;2.70;;
37299;SDS011;23184;51.902;12.836;2023-02-28T08:44:07;8.23;;;2.95;;
37299;SDS011;23184;51.902;12.836;2023-02-28T08:46:32;10.75;;;3.25;;
37299;SDS011;23184;51.902;12.836;2023-02-28T08:48:58;10.52;;;3.47;;
37299;SDS011;23184;51.902;12.836;2023-02-28T08:51:26;7.05;;;2.67;;
37299;SDS011;23184;51.902;12.836;2023-02-28T08:53:53;6.55;;;2.88;;
37299;SDS011;23184;51.902;12.836;2023-02-28T08:56:19;8.60;;;3.30;;
37299;SDS011;23184;51.902;12.836;2023-02-28T08:58:46;5.53;;;2.58;;
37299;SDS011;23184;51.902;12.836;2023-02-28T09:01:20;4.78;;;2.30;;
37299;SDS011;23184;51.902;12.836;2023-02-28T09:03:48;5.97;;;3.08;;
37299;SDS011;23184;51.902;12.836;2023-02-28T09:06:15;4.05;;;2.05;;
37299;SDS011;23184;51.902;12.836;2023-02-28T09:08:41;5.03;;;2.50;;
37299;SDS011;23184;51.902;12.836;2023-02-28T09:11:07;6.15;;;2.97;;
37299;SDS011;23184;51.902;12.836;2023-02-28T09:13:33;11.82;;;3.55;;
37299;SDS011;23184;51.902;12.836;2023-02-28T09:16:00;4.68;;;2.55;;
37299;SDS011;23184;51.902;12.836;2023-02-28T09:18:27;4.57;;;2.28;;
37299;SDS011;23184;51.902;12.836;2023-02-28T09:20:52;5.57;;;2.63;;
37299;SDS011;23184;51.902;12.836;2023-02-28T09:23:18;6.75;;;2.40;;
37299;SDS011;23184;51.902;12.836;2023-02-28T09:25:45;4.88;;;2.40;;
37299;SDS011;23184;51.902;12.836;2023-02-28T09:28:12;7.18;;;2.35;;
37299;SDS011;23184;51.902;12.836;2023-02-28T09:30:40;5.45;;;2.60;;
37299;SDS011;23184;51.902;12.836;2023-02-28T09:33:06;5.25;;;2.50;;
37299;SDS011;23184;51.902;12.836;2023-02-28T09:35:31;5.13;;;2.60;;
37299;SDS011;23184;51.902;12.836;2023-02-28T09:37:57;5.05;;;2.38;;
37299;SDS011;23184;51.902;12.836;2023-02-28T09:40:24;4.60;;;2.55;;
37299;SDS011;23184;51.902;12.836;2023-02-28T09:42:54;3.83;;;2.28;;
37299;SDS011;23184;51.902;12.836;2023-02-28T09:45:24;3.92;;;2.30;;
37299;SDS011;23184;51.902;12.836;2023-02-28T09:47:59;5.63;;;2.78;;
37299;SDS011;23184;51.902;12.836;2023-02-28T09:53:11;5.13;;;2.47;;
37299;SDS011;23184;51.902;12.836;2023-02-28T09:55:44;5.63;;;2.67;;
37299;SDS011;23184;51.902;12.836;2023-02-28T09:58:19;5.18;;;2.42;;
37299;SDS011;23184;51.902;12.836;2023-02-28T10:00:53;5.25;;;2.40;;
37299;SDS011;23184;51.902;12.836;2023-02-28T10:03:42;5.93;;;2.50;;
37299;SDS011;23184;51.902;12.836;2023-02-28T10:06:17;4.43;;;2.33;;
37299;SDS011;23184;51.902;12.836;2023-02-28T10:09:05;4.75;;;2.20;;
37299;SDS011;23184;51.902;12.836;2023-02-28T10:11:38;6.67;;;2.70;;
37299;SDS011;23184;51.902;12.836;2023-02-28T10:14:09;7.10;;;3.03;;
37299;SDS011;23184;51.902;12.836;2023-02-28T10:16:41;4.20;;;2.17;;
37299;SDS011;23184;51.902;12.836;2023-02-28T10:19:30;4.20;;;2.55;;
37299;SDS011;23184;51.902;12.836;2023-02-28T10:24:47;4.60;;;2.30;;
37299;SDS011;23184;51.902;12.836;2023-02-28T10:27:20;4.65;;;2.45;;
37299;SDS011;23184;51.902;12.836;2023-02-28T10:29:49;4.68;;;2.63;;
37299;SDS011;23184;51.902;12.836;2023-02-28T10:32:21;6.20;;;2.60;;
37299;SDS011;23184;51.902;12.836;2023-02-28T10:35:00;5.28;;;2.67;;
37299;SDS011;23184;51.902;12.836;2023-02-28T10:37:42;4.13;;;2.35;;
37299;SDS011;23184;51.902;12.836;2023-02-28T10:42:56;4.72;;;2.58;;
37299;SDS011;23184;51.902;12.836;2023-02-28T10:45:34;5.60;;;2.85;;
37299;SDS011;23184;51.902;12.836;2023-02-28T10:50:43;4.53;;;2.60;;
37299;SDS011;23184;51.902;12.836;2023-02-28T10:58:44;6.47;;;2.90;;
37299;SDS011;23184;51.902;12.836;2023-02-28T11:01:15;5.90;;;2.50;;
37299;SDS011;23184;51.902;12.836;2023-02-28T11:03:43;6.25;;;2.80;;
37299;SDS011;23184;51.902;12.836;2023-02-28T11:08:49;4.30;;;2.38;;
37299;SDS011;23184;51.902;12.836;2023-02-28T11:11:17;6.57;;;2.83;;
37299;SDS011;23184;51.902;12.836;2023-02-28T11:13:45;4.80;;;3.03;;
37299;SDS011;23184;51.902;12.836;2023-02-28T11:16:13;7.40;;;3.05;;
37299;SDS011;23184;51.902;12.836;2023-02-28T11:18:46;6.07;;;2.90;;
37299;SDS011;23184;51.902;12.836;2023-02-28T11:21:28;5.35;;;2.55;;
37299;SDS011;23184;51.902;12.836;2023-02-28T11:23:56;5.75;;;2.80;;
37299;SDS011;23184;51.902;12.836;2023-02-28T11:26:42;5.45;;;2.75;;
37299;SDS011;23184;51.902;12.836;2023-02-28T11:29:26;7.63;;;2.88;;
37299;SDS011;23184;51.902;12.836;2023-02-28T11:34:38;6.55;;;2.97;;
37299;SDS011;23184;51.902;12.836;2023-02-28T11:37:08;6.28;;;2.72;;
37299;SDS011;23184;51.902;12.836;2023-02-28T11:39:36;7.35;;;3.42;;
37299;SDS011;23184;51.902;12.836;2023-02-28T11:56:31;5.88;;;3.10;;
37299;SDS011;23184;51.902;12.836;2023-02-28T12:05:31;6.60;;;2.85;;
37299;SDS011;23184;51.902;12.836;2023-02-28T12:07:38;7.20;;;3.38;;
37299;SDS011;23184;51.902;12.836;2023-02-28T12:10:21;6.45;;;2.75;;
37299;SDS011;23184;51.902;12.836;2023-02-28T12:12:57;6.53;;;3.20;;
37299;SDS011;23184;51.902;12.836;2023-02-28T12:15:37;5.47;;;3.17;;
37299;SDS011;23184;51.902;12.836;2023-02-28T12:21:23;6.57;;;3.28;;
37299;SDS011;23184;51.902;12.836;2023-02-28T12:26:46;7.03;;;2.67;;
37299;SDS011;23184;51.902;12.836;2023-02-28T12:29:24;9.00;;;3.20;;
37299;SDS011;23184;51.902;12.836;2023-02-28T12:34:39;6.40;;;3.08;;
37299;SDS011;23184;51.902;12.836;2023-02-28T12:38:14;6.15;;;3.15;;
37299;SDS011;23184;51.902;12.836;2023-02-28T12:40:19;6.38;;;3.00;;
37299;SDS011;23184;51.902;12.836;2023-02-28T12:42:51;8.43;;;2.85;;
37299;SDS011;23184;51.902;12.836;2023-02-28T12:45:22;6.10;;;3.05;;
37299;SDS011;23184;51.902;12.836;2023-02-28T12:47:50;7.10;;;3.10;;
37299;SDS011;23184;51.902;12.836;2023-02-28T12:50:22;5.63;;;3.22;;
37299;SDS011;23184;51.902;12.836;2023-02-28T12:55:33;6.05;;;3.03;;
37299;SDS011;23184;51.902;12.836;2023-02-28T13:04:08;8.30;;;2.90;;
37299;SDS011;23184;51.902;12.836;2023-02-28T13:09:35;7.25;;;3.13;;
37299;SDS011;23184;51.902;12.836;2023-02-28T13:12:04;5.00;;;2.88;;
37299;SDS011;23184;51.902;12.836;2023-02-28T13:14:38;10.27;;;3.30;;
37299;SDS011;23184;51.902;12.836;2023-02-28T13:19:40;7.88;;;2.97;;
37299;SDS011;23184;51.902;12.836;2023-02-28T13:22:10;7.70;;;3.30;;
37299;SDS011;23184;51.902;12.836;2023-02-28T13:24:51;6.07;;;3.60;;
37299;SDS011;23184;51.902;12.836;2023-02-28T13:27:23;5.93;;;3.40;;
37299;SDS011;23184;51.902;12.836;2023-02-28T13:38:42;5.90;;;3.53;;
37299;SDS011;23184;51.902;12.836;2023-02-28T13:49:31;8.15;;;3.70;;
37299;SDS011;23184;51.902;12.836;2023-02-28T13:57:54;4.97;;;3.63;;
37299;SDS011;23184;51.902;12.836;2023-02-28T14:03:28;6.72;;;3.95;;
37299;SDS011;23184;51.902;12.836;2023-02-28T14:06:30;5.43;;;3.50;;
37299;SDS011;23184;51.902;12.836;2023-02-28T14:11:49;6.80;;;3.67;;
37299;SDS011;23184;51.902;12.836;2023-02-28T14:14:53;6.05;;;3.67;;
37299;SDS011;23184;51.902;12.836;2023-02-28T14:17:14;6.38;;;3.08;;
37299;SDS011;23184;51.902;12.836;2023-02-28T14:19:43;4.50;;;2.95;;
37299;SDS011;23184;51.902;12.836;2023-02-28T14:30:25;5.20;;;3.40;;
37299;SDS011;23184;51.902;12.836;2023-02-28T14:35:46;6.75;;;3.17;;
37299;SDS011;23184;51.902;12.836;2023-02-28T14:39:12;5.23;;;3.20;;
37299;SDS011;23184;51.902;12.836;2023-02-28T14:41:29;6.18;;;3.00;;
37299;SDS011;23184;51.902;12.836;2023-02-28T14:44:00;5.32;;;3.10;;
37299;SDS011;23184;51.902;12.836;2023-02-28T14:46:30;5.50;;;3.45;;
37299;SDS011;23184;51.902;12.836;2023-02-28T14:49:02;5.05;;;2.90;;
37299;SDS011;23184;51.902;12.836;2023-02-28T14:51:30;5.15;;;3.33;;
37299;SDS011;23184;51.902;12.836;2023-02-28T14:53:57;3.63;;;2.50;;
37299;SDS011;23184;51.902;12.836;2023-02-28T14:56:34;4.32;;;2.80;;
37299;SDS011;23184;51.902;12.836;2023-02-28T14:59:02;4.88;;;3.17;;
37299;SDS011;23184;51.902;12.836;2023-02-28T15:01:28;4.88;;;3.17;;
37299;SDS011;23184;51.902;12.836;2023-02-28T15:04:01;5.50;;;3.25;;
37299;SDS011;23184;51.902;12.836;2023-02-28T15:06:29;5.55;;;2.95;;
37299;SDS011;23184;51.902;12.836;2023-02-28T15:09:14;5.10;;;3.28;;
37299;SDS011;23184;51.902;12.836;2023-02-28T15:11:41;5.57;;;3.53;;
37299;SDS011;23184;51.902;12.836;2023-02-28T15:14:15;5.55;;;2.97;;
37299;SDS011;23184;51.902;12.836;2023-02-28T15:16:44;6.05;;;3.50;;
37299;SDS011;23184;51.902;12.836;2023-02-28T15:19:17;4.97;;;3.10;;
37299;SDS011;23184;51.902;12.836;2023-02-28T15:21:56;4.80;;;2.90;;
37299;SDS011;23184;51.902;12.836;2023-02-28T15:24:42;5.90;;;3.17;;
37299;SDS011;23184;51.902;12.836;2023-02-28T15:27:15;6.68;;;3.22;;
37299;SDS011;23184;51.902;12.836;2023-02-28T15:29:51;4.15;;;2.45;;
37299;SDS011;23184;51.902;12.836;2023-02-28T15:32:23;5.72;;;2.75;;
37299;SDS011;23184;51.902;12.836;2023-02-28T15:35:16;8.43;;;2.80;;
37299;SDS011;23184;51.902;12.836;2023-02-28T15:37:58;6.43;;;2.70;;
37299;SDS011;23184;51.902;12.836;2023-02-28T15:40:30;5.32;;;2.47;;
37299;SDS011;23184;51.902;12.836;2023-02-28T15:43:17;5.45;;;2.75;;
37299;SDS011;23184;51.902;12.836;2023-02-28T15:45:48;4.93;;;2.88;;
37299;SDS011;23184;51.902;12.836;2023-02-28T15:48:20;4.55;;;2.70;;
37299;SDS011;23184;51.902;12.836;2023-02-28T15:50:55;5.43;;;2.75;;
37299;SDS011;23184;51.902;12.836;2023-02-28T15:53:30;4.50;;;2.60;;
37299;SDS011;23184;51.902;12.836;2023-02-28T15:56:03;3.72;;;2.25;;
37299;SDS011;23184;51.902;12.836;2023-02-28T15:58:31;5.05;;;2.42;;
37299;SDS011;23184;51.902;12.836;2023-02-28T16:03:51;4.65;;;2.75;;
37299;SDS011;23184;51.902;12.836;2023-02-28T16:08:50;4.72;;;2.45;;
37299;SDS011;23184;51.902;12.836;2023-02-28T16:11:16;5.88;;;2.75;;
37299;SDS011;23184;51.902;12.836;2023-02-28T16:13:42;4.60;;;2.78;;
37299;SDS011;23184;51.902;12.836;2023-02-28T16:16:08;4.50;;;2.55;;
37299;SDS011;23184;51.902;12.836;2023-02-28T16:18:39;6.45;;;2.80;;
37299;SDS011;23184;51.902;12.836;2023-02-28T16:21:04;6.13;;;2.53;;
37299;SDS011;23184;51.902;12.836;2023-02-28T16:23:30;6.05;;;2.72;;
37299;SDS011;23184;51.902;12.836;2023-02-28T16:25:55;7.95;;;2.88;;
37299;SDS011;23184;51.902;12.836;2023-02-28T16:28:25;6.60;;;2.38;;
37299;SDS011;23184;51.902;12.836;2023-02-28T16:30:56;6.07;;;2.90;;
37299;SDS011;23184;51.902;12.836;2023-02-28T16:33:21;5.20;;;2.78;;
37299;SDS011;23184;51.902;12.836;2023-02-28T16:35:47;6.72;;;3.10;;
37299;SDS011;23184;51.902;12.836;2023-02-28T16:38:12;4.18;;;2.65;;
37299;SDS011;23184;51.902;12.836;2023-02-28T16:40:38;4.93;;;2.63;;
37299;SDS011;23184;51.902;12.836;2023-02-28T16:43:05;8.13;;;2.47;;
37299;SDS011;23184;51.902;12.836;2023-02-28T16:45:34;4.88;;;2.30;;
37299;SDS011;23184;51.902;12.836;2023-02-28T16:48:00;5.30;;;2.38;;
37299;SDS011;23184;51.902;12.836;2023-02-28T16:50:27;5.88;;;2.63;;
37299;SDS011;23184;51.902;12.836;2023-02-28T16:52:54;5.95;;;2.50;;
37299;SDS011;23184;51.902;12.836;2023-02-28T16:55:21;6.10;;;2.90;;
37299;SDS011;23184;51.902;12.836;2023-02-28T16:57:51;8.10;;;2.60;;
37299;SDS011;23184;51.902;12.836;2023-02-28T17:00:21;6.28;;;2.60;;
37299;SDS011;23184;51.902;12.836;2023-02-28T17:02:48;6.93;;;2.50;;